sensor_id;sensor_type;location;lat;lon;timestamp;P1;durP1;ratioP1;P2;durP2;ratioP2
64686;SDS011;51113;53.646;-113.674;2023-05-10T00:00:36;2.40;;;1.40;;
64686;SDS011;51113;53.646;-113.674;2023-05-10T00:03:04;3.40;;;1.63;;
64686;SDS011;51113;53.646;-113.674;2023-05-10T00:05:33;2.90;;;2.15;;
64686;SDS011;51113;53.646;-113.674;2023-05-10T00:08:02;2.33;;;1.90;;
64686;SDS011;51113;53.646;-113.674;2023-05-10T00:10:30;3.22;;;2.08;;
64686;SDS011;51113;53.646;-113.674;2023-05-10T00:12:59;2.28;;;1.70;;
64686;SDS011;51113;53.646;-113.674;2023-05-10T00:15:28;2.75;;;1.73;;
64686;SDS011;51113;53.646;-113.674;2023-05-10T00:17:58;2.33;;;1.67;;
64686;SDS011;51113;53.646;-113.674;2023-05-10T00:20:27;6.15;;;1.30;;
64686;SDS011;51113;53.646;-113.674;2023-05-10T00:22:55;5.18;;;1.40;;
64686;SDS011;51113;53.646;-113.674;2023-05-10T00:25:23;3.03;;;1.40;;
64686;SDS011;51113;53.646;-113.674;2023-05-10T00:27:52;6.43;;;1.50;;
64686;SDS011;51113;53.646;-113.674;2023-05-10T00:30:22;4.15;;;1.60;;
64686;SDS011;51113;53.646;-113.674;2023-05-10T00:32:51;2.92;;;1.40;;
64686;SDS011;51113;53.646;-113.674;2023-05-10T00:35:20;4.70;;;2.13;;
64686;SDS011;51113;53.646;-113.674;2023-05-10T00:37:49;4.75;;;1.98;;
64686;SDS011;51113;53.646;-113.674;2023-05-10T00:40:17;4.88;;;2.17;;
64686;SDS011;51113;53.646;-113.674;2023-05-10T00:42:46;4.70;;;2.20;;
64686;SDS011;51113;53.646;-113.674;2023-05-10T00:45:14;4.80;;;1.90;;
64686;SDS011;51113;53.646;-113.674;2023-05-10T00:47:42;3.20;;;1.75;;
64686;SDS011;51113;53.646;-113.674;2023-05-10T00:50:11;3.05;;;1.65;;
64686;SDS011;51113;53.646;-113.674;2023-05-10T00:52:40;6.75;;;2.15;;
64686;SDS011;51113;53.646;-113.674;2023-05-10T00:55:10;3.25;;;2.10;;
64686;SDS011;51113;53.646;-113.674;2023-05-10T00:57:40;3.60;;;2.70;;
64686;SDS011;51113;53.646;-113.674;2023-05-10T01:00:10;4.70;;;2.45;;
64686;SDS011;51113;53.646;-113.674;2023-05-10T01:02:40;6.22;;;2.67;;
64686;SDS011;51113;53.646;-113.674;2023-05-10T01:05:10;3.55;;;2.50;;
64686;SDS011;51113;53.646;-113.674;2023-05-10T01:07:39;3.00;;;2.40;;
64686;SDS011;51113;53.646;-113.674;2023-05-10T01:10:09;3.67;;;2.78;;
64686;SDS011;51113;53.646;-113.674;2023-05-10T01:12:40;3.00;;;2.20;;
64686;SDS011;51113;53.646;-113.674;2023-05-10T01:15:11;4.15;;;2.90;;
64686;SDS011;51113;53.646;-113.674;2023-05-10T01:17:42;3.53;;;2.88;;
64686;SDS011;51113;53.646;-113.674;2023-05-10T01:20:13;4.13;;;3.28;;
64686;SDS011;51113;53.646;-113.674;2023-05-10T01:25:58;7.93;;;3.33;;
64686;SDS011;51113;53.646;-113.674;2023-05-10T01:34:47;9.25;;;2.75;;
64686;SDS011;51113;53.646;-113.674;2023-05-10T01:40:37;5.63;;;2.50;;
64686;SDS011;51113;53.646;-113.674;2023-05-10T01:43:19;3.75;;;2.10;;
64686;SDS011;51113;53.646;-113.674;2023-05-10T01:45:58;3.40;;;2.30;;
64686;SDS011;51113;53.646;-113.674;2023-05-10T01:48:39;2.80;;;2.10;;
64686;SDS011;51113;53.646;-113.674;2023-05-10T01:51:19;4.43;;;2.40;;
64686;SDS011;51113;53.646;-113.674;2023-05-10T01:53:54;2.88;;;2.40;;
64686;SDS011;51113;53.646;-113.674;2023-05-10T01:56:29;3.40;;;2.78;;
64686;SDS011;51113;53.646;-113.674;2023-05-10T01:59:02;4.37;;;2.53;;
64686;SDS011;51113;53.646;-113.674;2023-05-10T02:01:37;5.13;;;2.50;;
64686;SDS011;51113;53.646;-113.674;2023-05-10T02:04:06;4.85;;;2.20;;
64686;SDS011;51113;53.646;-113.674;2023-05-10T02:06:37;3.72;;;2.55;;
64686;SDS011;51113;53.646;-113.674;2023-05-10T02:09:07;5.38;;;2.30;;
64686;SDS011;51113;53.646;-113.674;2023-05-10T02:11:37;4.03;;;2.35;;
64686;SDS011;51113;53.646;-113.674;2023-05-10T02:14:07;2.83;;;1.83;;
64686;SDS011;51113;53.646;-113.674;2023-05-10T02:16:38;9.10;;;1.98;;
64686;SDS011;51113;53.646;-113.674;2023-05-10T02:19:08;2.30;;;1.90;;
64686;SDS011;51113;53.646;-113.674;2023-05-10T02:21:40;2.58;;;2.10;;
64686;SDS011;51113;53.646;-113.674;2023-05-10T02:24:11;3.80;;;2.10;;
64686;SDS011;51113;53.646;-113.674;2023-05-10T02:26:40;4.05;;;2.47;;
64686;SDS011;51113;53.646;-113.674;2023-05-10T02:29:10;3.45;;;2.58;;
64686;SDS011;51113;53.646;-113.674;2023-05-10T02:31:40;3.60;;;2.60;;
64686;SDS011;51113;53.646;-113.674;2023-05-10T02:34:14;7.20;;;3.10;;
64686;SDS011;51113;53.646;-113.674;2023-05-10T02:36:42;5.43;;;3.13;;
64686;SDS011;51113;53.646;-113.674;2023-05-10T02:39:11;5.63;;;3.47;;
64686;SDS011;51113;53.646;-113.674;2023-05-10T02:41:42;5.35;;;3.53;;
64686;SDS011;51113;53.646;-113.674;2023-05-10T02:44:14;5.03;;;3.40;;
64686;SDS011;51113;53.646;-113.674;2023-05-10T02:46:45;6.88;;;3.55;;
64686;SDS011;51113;53.646;-113.674;2023-05-10T02:49:15;6.63;;;3.65;;
64686;SDS011;51113;53.646;-113.674;2023-05-10T02:51:45;5.85;;;3.03;;
64686;SDS011;51113;53.646;-113.674;2023-05-10T02:54:19;5.85;;;3.70;;
64686;SDS011;51113;53.646;-113.674;2023-05-10T02:56:53;4.32;;;3.42;;
64686;SDS011;51113;53.646;-113.674;2023-05-10T02:59:28;3.90;;;3.50;;
64686;SDS011;51113;53.646;-113.674;2023-05-10T03:01:57;4.38;;;3.45;;
64686;SDS011;51113;53.646;-113.674;2023-05-10T03:04:28;7.60;;;3.50;;
64686;SDS011;51113;53.646;-113.674;2023-05-10T03:06:56;4.18;;;3.30;;
64686;SDS011;51113;53.646;-113.674;2023-05-10T03:09:25;6.80;;;3.13;;
64686;SDS011;51113;53.646;-113.674;2023-05-10T03:20:21;4.85;;;3.08;;
64686;SDS011;51113;53.646;-113.674;2023-05-10T03:22:58;3.95;;;3.35;;
64686;SDS011;51113;53.646;-113.674;2023-05-10T03:25:32;5.13;;;3.38;;
64686;SDS011;51113;53.646;-113.674;2023-05-10T03:28:01;5.30;;;3.30;;
64686;SDS011;51113;53.646;-113.674;2023-05-10T03:30:32;7.43;;;3.22;;
64686;SDS011;51113;53.646;-113.674;2023-05-10T03:33:05;6.00;;;3.13;;
64686;SDS011;51113;53.646;-113.674;2023-05-10T03:35:34;5.90;;;3.30;;
64686;SDS011;51113;53.646;-113.674;2023-05-10T03:38:02;3.50;;;3.17;;
64686;SDS011;51113;53.646;-113.674;2023-05-10T03:40:31;5.65;;;3.13;;
64686;SDS011;51113;53.646;-113.674;2023-05-10T03:43:00;6.88;;;3.60;;
64686;SDS011;51113;53.646;-113.674;2023-05-10T03:45:29;5.90;;;3.80;;
64686;SDS011;51113;53.646;-113.674;2023-05-10T03:47:58;5.32;;;3.67;;
64686;SDS011;51113;53.646;-113.674;2023-05-10T03:50:27;5.55;;;4.20;;
64686;SDS011;51113;53.646;-113.674;2023-05-10T03:52:56;6.25;;;4.20;;
64686;SDS011;51113;53.646;-113.674;2023-05-10T03:55:25;5.60;;;4.00;;
64686;SDS011;51113;53.646;-113.674;2023-05-10T03:57:54;7.70;;;4.05;;
64686;SDS011;51113;53.646;-113.674;2023-05-10T04:00:22;5.70;;;4.22;;
64686;SDS011;51113;53.646;-113.674;2023-05-10T04:02:51;5.75;;;4.05;;
64686;SDS011;51113;53.646;-113.674;2023-05-10T04:05:19;8.32;;;3.97;;
64686;SDS011;51113;53.646;-113.674;2023-05-10T04:07:47;5.38;;;4.00;;
64686;SDS011;51113;53.646;-113.674;2023-05-10T04:10:17;6.32;;;4.00;;
64686;SDS011;51113;53.646;-113.674;2023-05-10T04:12:45;5.85;;;3.83;;
64686;SDS011;51113;53.646;-113.674;2023-05-10T04:15:14;5.38;;;3.88;;
64686;SDS011;51113;53.646;-113.674;2023-05-10T04:17:43;6.40;;;4.15;;
64686;SDS011;51113;53.646;-113.674;2023-05-10T04:20:12;5.15;;;3.80;;
64686;SDS011;51113;53.646;-113.674;2023-05-10T04:22:42;7.50;;;4.03;;
64686;SDS011;51113;53.646;-113.674;2023-05-10T04:25:10;7.63;;;4.10;;
64686;SDS011;51113;53.646;-113.674;2023-05-10T04:27:39;6.00;;;4.45;;
64686;SDS011;51113;53.646;-113.674;2023-05-10T04:30:08;6.35;;;4.30;;
64686;SDS011;51113;53.646;-113.674;2023-05-10T04:32:37;9.10;;;4.53;;
64686;SDS011;51113;53.646;-113.674;2023-05-10T04:35:05;5.43;;;4.28;;
64686;SDS011;51113;53.646;-113.674;2023-05-10T04:37:34;4.65;;;4.10;;
64686;SDS011;51113;53.646;-113.674;2023-05-10T04:40:04;7.65;;;4.15;;
64686;SDS011;51113;53.646;-113.674;2023-05-10T04:42:33;6.25;;;4.30;;
64686;SDS011;51113;53.646;-113.674;2023-05-10T04:45:02;5.15;;;4.63;;
64686;SDS011;51113;53.646;-113.674;2023-05-10T04:47:31;8.23;;;5.57;;
64686;SDS011;51113;53.646;-113.674;2023-05-10T04:50:00;9.93;;;6.25;;
64686;SDS011;51113;53.646;-113.674;2023-05-10T04:52:29;6.70;;;6.05;;
64686;SDS011;51113;53.646;-113.674;2023-05-10T04:54:57;8.15;;;6.00;;
64686;SDS011;51113;53.646;-113.674;2023-05-10T04:57:26;10.77;;;6.32;;
64686;SDS011;51113;53.646;-113.674;2023-05-10T04:59:54;12.43;;;6.00;;
64686;SDS011;51113;53.646;-113.674;2023-05-10T05:02:23;9.15;;;5.97;;
64686;SDS011;51113;53.646;-113.674;2023-05-10T05:04:52;7.25;;;5.32;;
64686;SDS011;51113;53.646;-113.674;2023-05-10T05:07:20;8.50;;;6.15;;
64686;SDS011;51113;53.646;-113.674;2023-05-10T05:09:50;7.78;;;6.15;;
64686;SDS011;51113;53.646;-113.674;2023-05-10T05:12:18;6.80;;;5.50;;
64686;SDS011;51113;53.646;-113.674;2023-05-10T05:14:47;9.52;;;5.38;;
64686;SDS011;51113;53.646;-113.674;2023-05-10T05:17:15;6.00;;;5.15;;
64686;SDS011;51113;53.646;-113.674;2023-05-10T05:19:44;6.03;;;5.30;;
64686;SDS011;51113;53.646;-113.674;2023-05-10T05:22:13;8.15;;;5.63;;
64686;SDS011;51113;53.646;-113.674;2023-05-10T05:24:44;8.25;;;5.95;;
64686;SDS011;51113;53.646;-113.674;2023-05-10T05:27:14;6.78;;;6.07;;
64686;SDS011;51113;53.646;-113.674;2023-05-10T05:29:43;6.55;;;5.95;;
64686;SDS011;51113;53.646;-113.674;2023-05-10T05:32:11;7.07;;;5.85;;
64686;SDS011;51113;53.646;-113.674;2023-05-10T05:34:41;7.70;;;6.35;;
64686;SDS011;51113;53.646;-113.674;2023-05-10T05:37:12;7.88;;;6.43;;
64686;SDS011;51113;53.646;-113.674;2023-05-10T05:39:44;7.80;;;6.95;;
64686;SDS011;51113;53.646;-113.674;2023-05-10T05:42:13;7.55;;;6.18;;
64686;SDS011;51113;53.646;-113.674;2023-05-10T05:44:44;6.68;;;5.97;;
64686;SDS011;51113;53.646;-113.674;2023-05-10T05:47:12;9.88;;;7.50;;
64686;SDS011;51113;53.646;-113.674;2023-05-10T05:49:41;7.78;;;6.60;;
64686;SDS011;51113;53.646;-113.674;2023-05-10T05:52:10;7.75;;;6.35;;
64686;SDS011;51113;53.646;-113.674;2023-05-10T05:54:38;8.73;;;6.50;;
64686;SDS011;51113;53.646;-113.674;2023-05-10T05:57:07;8.77;;;7.60;;
64686;SDS011;51113;53.646;-113.674;2023-05-10T05:59:36;6.85;;;6.15;;
64686;SDS011;51113;53.646;-113.674;2023-05-10T06:02:09;7.22;;;6.53;;
64686;SDS011;51113;53.646;-113.674;2023-05-10T06:04:39;7.70;;;6.60;;
64686;SDS011;51113;53.646;-113.674;2023-05-10T06:07:10;7.43;;;6.55;;
64686;SDS011;51113;53.646;-113.674;2023-05-10T06:09:38;7.55;;;6.75;;
64686;SDS011;51113;53.646;-113.674;2023-05-10T06:12:07;7.60;;;6.80;;
64686;SDS011;51113;53.646;-113.674;2023-05-10T06:14:35;9.50;;;7.60;;
64686;SDS011;51113;53.646;-113.674;2023-05-10T06:17:06;7.70;;;6.75;;
64686;SDS011;51113;53.646;-113.674;2023-05-10T06:19:35;7.70;;;6.90;;
64686;SDS011;51113;53.646;-113.674;2023-05-10T06:22:04;8.25;;;7.18;;
64686;SDS011;51113;53.646;-113.674;2023-05-10T06:24:33;8.52;;;7.28;;
64686;SDS011;51113;53.646;-113.674;2023-05-10T06:27:01;10.18;;;7.38;;
64686;SDS011;51113;53.646;-113.674;2023-05-10T06:29:31;7.78;;;6.97;;
64686;SDS011;51113;53.646;-113.674;2023-05-10T06:32:00;10.35;;;8.02;;
64686;SDS011;51113;53.646;-113.674;2023-05-10T06:34:30;8.63;;;7.30;;
64686;SDS011;51113;53.646;-113.674;2023-05-10T06:36:59;9.65;;;8.15;;
64686;SDS011;51113;53.646;-113.674;2023-05-10T06:39:27;10.45;;;8.45;;
64686;SDS011;51113;53.646;-113.674;2023-05-10T06:41:56;9.20;;;7.40;;
64686;SDS011;51113;53.646;-113.674;2023-05-10T06:44:25;8.05;;;7.20;;
64686;SDS011;51113;53.646;-113.674;2023-05-10T06:46:53;9.18;;;6.90;;
64686;SDS011;51113;53.646;-113.674;2023-05-10T06:49:23;11.15;;;7.47;;
64686;SDS011;51113;53.646;-113.674;2023-05-10T06:51:51;8.60;;;7.32;;
64686;SDS011;51113;53.646;-113.674;2023-05-10T06:54:20;8.15;;;7.35;;
64686;SDS011;51113;53.646;-113.674;2023-05-10T06:56:48;8.23;;;7.28;;
64686;SDS011;51113;53.646;-113.674;2023-05-10T06:59:17;10.27;;;7.50;;
64686;SDS011;51113;53.646;-113.674;2023-05-10T07:01:48;8.85;;;7.60;;
64686;SDS011;51113;53.646;-113.674;2023-05-10T07:04:17;9.00;;;7.57;;
64686;SDS011;51113;53.646;-113.674;2023-05-10T07:06:45;9.13;;;7.38;;
64686;SDS011;51113;53.646;-113.674;2023-05-10T07:09:15;7.90;;;7.18;;
64686;SDS011;51113;53.646;-113.674;2023-05-10T07:11:43;9.88;;;7.25;;
64686;SDS011;51113;53.646;-113.674;2023-05-10T07:14:11;8.50;;;7.70;;
64686;SDS011;51113;53.646;-113.674;2023-05-10T07:16:40;9.40;;;7.45;;
64686;SDS011;51113;53.646;-113.674;2023-05-10T07:19:09;9.95;;;7.75;;
64686;SDS011;51113;53.646;-113.674;2023-05-10T07:21:38;9.35;;;7.40;;
64686;SDS011;51113;53.646;-113.674;2023-05-10T07:24:08;8.32;;;7.47;;
64686;SDS011;51113;53.646;-113.674;2023-05-10T07:26:37;8.73;;;7.80;;
64686;SDS011;51113;53.646;-113.674;2023-05-10T07:29:05;10.77;;;7.80;;
64686;SDS011;51113;53.646;-113.674;2023-05-10T07:31:34;8.30;;;7.25;;
64686;SDS011;51113;53.646;-113.674;2023-05-10T07:34:02;10.40;;;7.85;;
64686;SDS011;51113;53.646;-113.674;2023-05-10T07:36:31;8.70;;;7.82;;
64686;SDS011;51113;53.646;-113.674;2023-05-10T07:39:00;11.68;;;8.15;;
64686;SDS011;51113;53.646;-113.674;2023-05-10T07:41:28;10.70;;;8.57;;
64686;SDS011;51113;53.646;-113.674;2023-05-10T07:43:57;11.18;;;8.57;;
64686;SDS011;51113;53.646;-113.674;2023-05-10T07:46:26;10.32;;;8.65;;
64686;SDS011;51113;53.646;-113.674;2023-05-10T07:48:55;11.93;;;8.65;;
64686;SDS011;51113;53.646;-113.674;2023-05-10T07:51:23;11.35;;;9.02;;
64686;SDS011;51113;53.646;-113.674;2023-05-10T07:53:53;9.85;;;8.85;;
64686;SDS011;51113;53.646;-113.674;2023-05-10T07:56:25;10.63;;;8.98;;
64686;SDS011;51113;53.646;-113.674;2023-05-10T07:58:57;15.48;;;10.30;;
64686;SDS011;51113;53.646;-113.674;2023-05-10T08:01:30;10.70;;;9.60;;
64686;SDS011;51113;53.646;-113.674;2023-05-10T08:04:02;10.43;;;8.43;;
64686;SDS011;51113;53.646;-113.674;2023-05-10T08:06:31;10.45;;;9.05;;
64686;SDS011;51113;53.646;-113.674;2023-05-10T08:09:00;9.48;;;8.40;;
64686;SDS011;51113;53.646;-113.674;2023-05-10T08:11:28;10.60;;;8.18;;
64686;SDS011;51113;53.646;-113.674;2023-05-10T08:14:00;9.38;;;8.38;;
64686;SDS011;51113;53.646;-113.674;2023-05-10T08:16:28;12.43;;;8.35;;
64686;SDS011;51113;53.646;-113.674;2023-05-10T08:18:57;8.93;;;8.00;;
64686;SDS011;51113;53.646;-113.674;2023-05-10T08:21:26;13.10;;;8.27;;
64686;SDS011;51113;53.646;-113.674;2023-05-10T08:23:55;9.48;;;7.82;;
64686;SDS011;51113;53.646;-113.674;2023-05-10T08:26:23;10.35;;;9.25;;
64686;SDS011;51113;53.646;-113.674;2023-05-10T08:28:52;13.43;;;10.13;;
64686;SDS011;51113;53.646;-113.674;2023-05-10T08:31:20;17.38;;;11.77;;
64686;SDS011;51113;53.646;-113.674;2023-05-10T08:33:49;16.50;;;13.60;;
64686;SDS011;51113;53.646;-113.674;2023-05-10T08:36:19;13.93;;;12.52;;
64686;SDS011;51113;53.646;-113.674;2023-05-10T08:38:52;11.95;;;10.63;;
64686;SDS011;51113;53.646;-113.674;2023-05-10T08:43:54;11.15;;;9.98;;
64686;SDS011;51113;53.646;-113.674;2023-05-10T08:46:23;10.77;;;9.70;;
64686;SDS011;51113;53.646;-113.674;2023-05-10T08:48:51;10.65;;;9.55;;
64686;SDS011;51113;53.646;-113.674;2023-05-10T08:51:22;14.43;;;11.85;;
64686;SDS011;51113;53.646;-113.674;2023-05-10T08:53:54;13.68;;;11.82;;
64686;SDS011;51113;53.646;-113.674;2023-05-10T08:56:23;13.43;;;11.77;;
64686;SDS011;51113;53.646;-113.674;2023-05-10T08:58:51;11.98;;;10.60;;
64686;SDS011;51113;53.646;-113.674;2023-05-10T09:01:21;11.70;;;10.48;;
64686;SDS011;51113;53.646;-113.674;2023-05-10T09:03:50;14.20;;;11.80;;
64686;SDS011;51113;53.646;-113.674;2023-05-10T09:06:20;16.98;;;12.68;;
64686;SDS011;51113;53.646;-113.674;2023-05-10T09:08:50;17.02;;;12.93;;
64686;SDS011;51113;53.646;-113.674;2023-05-10T09:11:20;19.42;;;14.60;;
64686;SDS011;51113;53.646;-113.674;2023-05-10T09:13:50;20.15;;;14.63;;
64686;SDS011;51113;53.646;-113.674;2023-05-10T09:16:20;18.38;;;13.82;;
64686;SDS011;51113;53.646;-113.674;2023-05-10T09:18:49;16.92;;;14.55;;
64686;SDS011;51113;53.646;-113.674;2023-05-10T09:21:19;16.60;;;13.60;;
64686;SDS011;51113;53.646;-113.674;2023-05-10T09:23:48;19.77;;;16.55;;
64686;SDS011;51113;53.646;-113.674;2023-05-10T09:26:17;19.80;;;16.50;;
64686;SDS011;51113;53.646;-113.674;2023-05-10T09:28:54;22.15;;;17.02;;
64686;SDS011;51113;53.646;-113.674;2023-05-10T09:31:24;20.67;;;15.68;;
64686;SDS011;51113;53.646;-113.674;2023-05-10T09:34:10;22.92;;;16.63;;
64686;SDS011;51113;53.646;-113.674;2023-05-10T09:36:49;21.23;;;16.75;;
64686;SDS011;51113;53.646;-113.674;2023-05-10T09:42:07;20.17;;;15.98;;
64686;SDS011;51113;53.646;-113.674;2023-05-10T09:44:37;23.30;;;17.50;;
64686;SDS011;51113;53.646;-113.674;2023-05-10T09:47:06;16.27;;;14.43;;
64686;SDS011;51113;53.646;-113.674;2023-05-10T09:49:34;20.80;;;15.60;;
64686;SDS011;51113;53.646;-113.674;2023-05-10T09:52:04;22.83;;;17.17;;
64686;SDS011;51113;53.646;-113.674;2023-05-10T09:54:34;20.88;;;17.40;;
64686;SDS011;51113;53.646;-113.674;2023-05-10T09:57:03;20.73;;;17.23;;
64686;SDS011;51113;53.646;-113.674;2023-05-10T09:59:32;21.65;;;17.58;;
64686;SDS011;51113;53.646;-113.674;2023-05-10T10:02:03;22.92;;;18.30;;
64686;SDS011;51113;53.646;-113.674;2023-05-10T10:04:32;25.40;;;18.70;;
64686;SDS011;51113;53.646;-113.674;2023-05-10T10:07:07;21.65;;;17.42;;
64686;SDS011;51113;53.646;-113.674;2023-05-10T10:09:35;20.15;;;16.73;;
64686;SDS011;51113;53.646;-113.674;2023-05-10T10:12:04;19.90;;;15.88;;
64686;SDS011;51113;53.646;-113.674;2023-05-10T10:14:33;21.15;;;15.63;;
64686;SDS011;51113;53.646;-113.674;2023-05-10T10:17:02;17.90;;;15.00;;
64686;SDS011;51113;53.646;-113.674;2023-05-10T10:19:34;17.95;;;13.52;;
64686;SDS011;51113;53.646;-113.674;2023-05-10T10:22:04;18.35;;;13.88;;
64686;SDS011;51113;53.646;-113.674;2023-05-10T10:24:33;15.80;;;13.43;;
64686;SDS011;51113;53.646;-113.674;2023-05-10T10:27:49;15.07;;;12.30;;
64686;SDS011;51113;53.646;-113.674;2023-05-10T10:30:18;15.85;;;13.32;;
64686;SDS011;51113;53.646;-113.674;2023-05-10T10:36:07;15.32;;;13.02;;
64686;SDS011;51113;53.646;-113.674;2023-05-10T10:38:57;16.60;;;13.48;;
64686;SDS011;51113;53.646;-113.674;2023-05-10T10:41:31;16.55;;;13.63;;
64686;SDS011;51113;53.646;-113.674;2023-05-10T10:49:43;11.45;;;10.25;;
64686;SDS011;51113;53.646;-113.674;2023-05-10T10:52:26;13.52;;;11.70;;
64686;SDS011;51113;53.646;-113.674;2023-05-10T10:57:33;16.10;;;12.82;;
64686;SDS011;51113;53.646;-113.674;2023-05-10T11:00:32;10.65;;;9.48;;
64686;SDS011;51113;53.646;-113.674;2023-05-10T11:03:06;12.27;;;10.35;;
64686;SDS011;51113;53.646;-113.674;2023-05-10T11:05:49;14.18;;;12.23;;
64686;SDS011;51113;53.646;-113.674;2023-05-10T11:08:29;16.40;;;12.80;;
64686;SDS011;51113;53.646;-113.674;2023-05-10T11:11:04;16.05;;;12.82;;
64686;SDS011;51113;53.646;-113.674;2023-05-10T11:13:46;21.17;;;15.00;;
64686;SDS011;51113;53.646;-113.674;2023-05-10T11:16:23;13.57;;;11.90;;
64686;SDS011;51113;53.646;-113.674;2023-05-10T11:21:25;12.25;;;10.48;;
64686;SDS011;51113;53.646;-113.674;2023-05-10T11:23:54;11.48;;;10.27;;
64686;SDS011;51113;53.646;-113.674;2023-05-10T11:26:25;13.30;;;11.90;;
64686;SDS011;51113;53.646;-113.674;2023-05-10T11:29:03;13.52;;;11.38;;
64686;SDS011;51113;53.646;-113.674;2023-05-10T11:31:32;12.75;;;11.45;;
64686;SDS011;51113;53.646;-113.674;2023-05-10T11:34:01;11.95;;;9.95;;
64686;SDS011;51113;53.646;-113.674;2023-05-10T11:36:34;13.02;;;11.50;;
64686;SDS011;51113;53.646;-113.674;2023-05-10T11:39:04;20.73;;;14.63;;
64686;SDS011;51113;53.646;-113.674;2023-05-10T11:41:33;16.73;;;13.68;;
64686;SDS011;51113;53.646;-113.674;2023-05-10T11:44:02;17.80;;;14.07;;
64686;SDS011;51113;53.646;-113.674;2023-05-10T11:46:31;12.13;;;10.90;;
64686;SDS011;51113;53.646;-113.674;2023-05-10T11:49:00;13.90;;;11.02;;
64686;SDS011;51113;53.646;-113.674;2023-05-10T11:51:32;23.27;;;14.90;;
64686;SDS011;51113;53.646;-113.674;2023-05-10T11:54:07;23.80;;;12.40;;
64686;SDS011;51113;53.646;-113.674;2023-05-10T11:56:37;11.15;;;10.05;;
64686;SDS011;51113;53.646;-113.674;2023-05-10T11:59:07;12.30;;;10.25;;
64686;SDS011;51113;53.646;-113.674;2023-05-10T12:01:36;16.48;;;12.98;;
64686;SDS011;51113;53.646;-113.674;2023-05-10T12:04:05;15.20;;;10.75;;
64686;SDS011;51113;53.646;-113.674;2023-05-10T12:06:36;14.00;;;11.68;;
64686;SDS011;51113;53.646;-113.674;2023-05-10T12:09:08;12.48;;;10.63;;
64686;SDS011;51113;53.646;-113.674;2023-05-10T12:11:40;12.05;;;10.75;;
64686;SDS011;51113;53.646;-113.674;2023-05-10T12:14:10;14.50;;;11.73;;
64686;SDS011;51113;53.646;-113.674;2023-05-10T12:16:38;12.07;;;10.65;;
64686;SDS011;51113;53.646;-113.674;2023-05-10T12:19:07;10.52;;;9.43;;
64686;SDS011;51113;53.646;-113.674;2023-05-10T12:21:37;18.30;;;14.48;;
64686;SDS011;51113;53.646;-113.674;2023-05-10T12:24:06;20.98;;;15.07;;
64686;SDS011;51113;53.646;-113.674;2023-05-10T12:26:36;21.40;;;16.27;;
64686;SDS011;51113;53.646;-113.674;2023-05-10T12:29:11;18.17;;;13.07;;
64686;SDS011;51113;53.646;-113.674;2023-05-10T12:31:58;20.70;;;14.98;;
64686;SDS011;51113;53.646;-113.674;2023-05-10T12:36:59;17.35;;;12.35;;
64686;SDS011;51113;53.646;-113.674;2023-05-10T12:39:40;15.75;;;12.55;;
64686;SDS011;51113;53.646;-113.674;2023-05-10T12:42:10;13.77;;;11.15;;
64686;SDS011;51113;53.646;-113.674;2023-05-10T12:44:39;12.55;;;10.32;;
64686;SDS011;51113;53.646;-113.674;2023-05-10T12:47:08;12.70;;;9.40;;
64686;SDS011;51113;53.646;-113.674;2023-05-10T12:49:36;10.40;;;8.85;;
64686;SDS011;51113;53.646;-113.674;2023-05-10T12:52:05;8.85;;;7.93;;
64686;SDS011;51113;53.646;-113.674;2023-05-10T12:54:33;11.10;;;7.47;;
64686;SDS011;51113;53.646;-113.674;2023-05-10T12:57:03;9.30;;;7.90;;
64686;SDS011;51113;53.646;-113.674;2023-05-10T12:59:32;10.00;;;7.60;;
64686;SDS011;51113;53.646;-113.674;2023-05-10T13:02:03;9.38;;;8.45;;
64686;SDS011;51113;53.646;-113.674;2023-05-10T13:04:32;8.38;;;7.47;;
64686;SDS011;51113;53.646;-113.674;2023-05-10T13:07:01;9.18;;;7.68;;
64686;SDS011;51113;53.646;-113.674;2023-05-10T13:09:31;9.10;;;7.93;;
64686;SDS011;51113;53.646;-113.674;2023-05-10T13:11:59;7.80;;;7.00;;
64686;SDS011;51113;53.646;-113.674;2023-05-10T13:14:27;9.50;;;8.50;;
64686;SDS011;51113;53.646;-113.674;2023-05-10T13:16:58;10.63;;;9.45;;
64686;SDS011;51113;53.646;-113.674;2023-05-10T13:19:28;10.23;;;8.70;;
64686;SDS011;51113;53.646;-113.674;2023-05-10T13:21:56;11.40;;;7.82;;
64686;SDS011;51113;53.646;-113.674;2023-05-10T13:24:24;8.30;;;7.32;;
64686;SDS011;51113;53.646;-113.674;2023-05-10T13:26:53;8.30;;;7.07;;
64686;SDS011;51113;53.646;-113.674;2023-05-10T13:29:21;9.10;;;7.53;;
64686;SDS011;51113;53.646;-113.674;2023-05-10T13:31:49;11.32;;;8.18;;
64686;SDS011;51113;53.646;-113.674;2023-05-10T13:34:18;8.13;;;6.72;;
64686;SDS011;51113;53.646;-113.674;2023-05-10T13:36:48;12.57;;;8.85;;
64686;SDS011;51113;53.646;-113.674;2023-05-10T13:39:17;9.82;;;8.57;;
64686;SDS011;51113;53.646;-113.674;2023-05-10T13:41:46;9.77;;;7.63;;
64686;SDS011;51113;53.646;-113.674;2023-05-10T13:44:14;8.35;;;7.50;;
64686;SDS011;51113;53.646;-113.674;2023-05-10T13:46:43;8.20;;;7.00;;
64686;SDS011;51113;53.646;-113.674;2023-05-10T13:49:13;8.32;;;7.50;;
64686;SDS011;51113;53.646;-113.674;2023-05-10T13:51:42;7.47;;;6.18;;
64686;SDS011;51113;53.646;-113.674;2023-05-10T13:54:11;7.57;;;6.80;;
64686;SDS011;51113;53.646;-113.674;2023-05-10T13:56:41;8.68;;;6.60;;
64686;SDS011;51113;53.646;-113.674;2023-05-10T13:59:09;7.53;;;6.70;;
64686;SDS011;51113;53.646;-113.674;2023-05-10T14:01:38;11.18;;;7.28;;
64686;SDS011;51113;53.646;-113.674;2023-05-10T14:04:07;9.68;;;8.55;;
64686;SDS011;51113;53.646;-113.674;2023-05-10T14:06:39;10.27;;;8.27;;
64686;SDS011;51113;53.646;-113.674;2023-05-10T14:09:08;9.23;;;7.45;;
64686;SDS011;51113;53.646;-113.674;2023-05-10T14:11:36;8.15;;;6.22;;
64686;SDS011;51113;53.646;-113.674;2023-05-10T14:14:09;9.50;;;7.90;;
64686;SDS011;51113;53.646;-113.674;2023-05-10T14:16:37;11.45;;;8.85;;
64686;SDS011;51113;53.646;-113.674;2023-05-10T14:19:05;10.10;;;8.70;;
64686;SDS011;51113;53.646;-113.674;2023-05-10T14:21:34;13.38;;;9.10;;
64686;SDS011;51113;53.646;-113.674;2023-05-10T14:24:02;10.35;;;8.95;;
64686;SDS011;51113;53.646;-113.674;2023-05-10T14:26:33;10.32;;;8.23;;
64686;SDS011;51113;53.646;-113.674;2023-05-10T14:29:04;9.57;;;8.60;;
64686;SDS011;51113;53.646;-113.674;2023-05-10T14:31:34;10.80;;;8.80;;
64686;SDS011;51113;53.646;-113.674;2023-05-10T14:34:03;9.57;;;8.45;;
64686;SDS011;51113;53.646;-113.674;2023-05-10T14:36:32;9.25;;;7.53;;
64686;SDS011;51113;53.646;-113.674;2023-05-10T14:39:01;8.43;;;7.25;;
64686;SDS011;51113;53.646;-113.674;2023-05-10T14:41:30;11.38;;;7.38;;
64686;SDS011;51113;53.646;-113.674;2023-05-10T14:43:59;11.90;;;6.97;;
64686;SDS011;51113;53.646;-113.674;2023-05-10T14:46:28;8.25;;;6.70;;
64686;SDS011;51113;53.646;-113.674;2023-05-10T14:48:57;10.48;;;6.38;;
64686;SDS011;51113;53.646;-113.674;2023-05-10T14:51:26;6.63;;;6.03;;
64686;SDS011;51113;53.646;-113.674;2023-05-10T14:53:55;6.60;;;5.78;;
64686;SDS011;51113;53.646;-113.674;2023-05-10T14:56:23;10.35;;;6.80;;
64686;SDS011;51113;53.646;-113.674;2023-05-10T14:58:53;9.23;;;6.57;;
64686;SDS011;51113;53.646;-113.674;2023-05-10T15:01:23;8.95;;;6.28;;